Time;durP1;ratioP1;P1;durP2;ratioP2;P2;SDS_P1;SDS_P2;PMS_P1;PMS_P2;Temp;Humidity;BMP_temperature;BMP_pressure;BME280_temperature;BME280_humidity;BME280_pressure;Samples;Min_cycle;Max_cycle;Signal;HPM_P1;HPM_P2
2022/05/18 00:00:16;;;;;;;12.50;6.27;;;13.80;99.90;;;;;;5101143;28;20851;-58
2022/05/18 00:02:42;;;;;;;8.43;5.50;;;13.80;99.90;;;;;;5102015;28;20457;-58
2022/05/18 00:05:09;;;;;;;6.20;5.20;;;13.80;99.90;;;;;;5104107;27;20935;-58
2022/05/18 00:07:34;;;;;;;9.53;5.50;;;13.70;99.90;;;;;;5103861;27;20224;-59
2022/05/18 00:10:00;;;;;;;10.17;6.10;;;13.70;99.90;;;;;;5099734;28;20931;-59
2022/05/18 00:12:27;;;;;;;6.93;5.00;;;13.60;99.90;;;;;;5100156;27;20268;-59
2022/05/18 00:14:53;;;;;;;8.80;5.57;;;13.60;99.90;;;;;;5101597;28;20923;-59
2022/05/18 00:17:18;;;;;;;7.87;5.83;;;13.60;99.90;;;;;;5097894;27;20434;-59
2022/05/18 00:19:44;;;;;;;7.73;5.97;;;13.60;99.90;;;;;;5105236;27;20448;-59
2022/05/18 00:22:10;;;;;;;6.37;5.33;;;13.50;99.90;;;;;;5099589;27;20251;-60
2022/05/18 00:24:36;;;;;;;5.97;5.43;;;13.50;99.90;;;;;;5081831;28;20222;-59
2022/05/18 00:27:03;;;;;;;6.73;5.93;;;13.50;99.90;;;;;;5101055;28;20450;-59
2022/05/18 00:29:33;;;;;;;10.53;5.47;;;13.50;99.90;;;;;;5105380;28;20219;-59
2022/05/18 00:32:00;;;;;;;6.13;5.57;;;13.40;99.90;;;;;;5103664;27;20599;-59
2022/05/18 00:34:26;;;;;;;7.03;5.37;;;13.40;99.90;;;;;;5099365;27;20423;-59
2022/05/18 00:36:51;;;;;;;9.27;5.30;;;13.40;99.90;;;;;;5102711;28;20423;-59
2022/05/18 00:39:18;;;;;;;11.90;6.60;;;13.40;99.90;;;;;;5101920;27;20769;-59
2022/05/18 00:41:44;;;;;;;7.53;5.53;;;13.30;99.90;;;;;;5108160;28;20245;-58
2022/05/18 00:44:10;;;;;;;8.10;6.07;;;13.30;99.90;;;;;;5111025;27;20419;-58
2022/05/18 00:46:36;;;;;;;7.30;5.27;;;13.30;99.90;;;;;;5093036;27;20665;-58
2022/05/18 00:49:06;;;;;;;8.73;5.70;;;13.20;99.90;;;;;;5098437;28;20168;-59
2022/05/18 00:51:54;;;;;;;8.70;5.77;;;13.20;99.90;;;;;;5101727;28;20589;-58
2022/05/18 00:54:27;;;;;;;6.30;5.53;;;13.10;99.90;;;;;;5099965;28;20427;-59
2022/05/18 00:56:52;;;;;;;10.00;5.23;;;13.10;99.90;;;;;;5096285;28;20424;-58
2022/05/18 00:59:23;;;;;;;8.30;5.40;;;13.10;99.90;;;;;;5103649;28;20433;-59
2022/05/18 01:01:52;;;;;;;6.93;5.70;;;13.10;99.90;;;;;;5105760;28;20200;-59
2022/05/18 01:04:18;;;;;;;6.67;5.43;;;13.10;99.90;;;;;;5104333;27;20462;-58
2022/05/18 01:06:49;;;;;;;8.33;6.10;;;13.00;99.90;;;;;;5106468;28;20546;-59
2022/05/18 01:09:25;;;;;;;11.70;6.23;;;13.00;99.90;;;;;;5109818;28;20442;-58
2022/05/18 01:11:51;;;;;;;7.63;5.33;;;12.90;99.90;;;;;;5105081;28;20445;-57
2022/05/18 01:14:52;;;;;;;6.00;5.33;;;12.90;99.90;;;;;;5112746;27;20426;-59
2022/05/18 01:17:24;;;;;;;6.30;5.70;;;12.90;99.90;;;;;;5100226;28;20640;-59
2022/05/18 01:19:53;;;;;;;7.97;5.50;;;12.90;99.90;;;;;;5103144;28;20518;-58
2022/05/18 01:22:52;;;;;;;8.30;5.63;;;12.80;99.90;;;;;;5110551;27;20510;-59
2022/05/18 01:25:39;;;;;;;6.53;5.40;;;12.80;99.90;;;;;;5101799;28;20430;-58
2022/05/18 01:28:06;;;;;;;9.10;5.53;;;12.70;99.90;;;;;;5107056;28;21054;-59
2022/05/18 01:30:33;;;;;;;5.57;5.00;;;12.70;99.90;;;;;;5089439;28;20427;-58
2022/05/18 01:33:00;;;;;;;6.80;6.10;;;12.70;99.90;;;;;;5103201;28;20860;-58
2022/05/18 01:35:30;;;;;;;7.80;5.80;;;12.70;99.90;;;;;;5105877;28;20502;-59
2022/05/18 01:37:57;;;;;;;6.80;6.10;;;12.60;99.90;;;;;;5100930;27;21081;-58
2022/05/18 01:40:49;;;;;;;7.73;6.10;;;12.60;99.90;;;;;;5105921;28;20487;-59
2022/05/18 01:43:21;;;;;;;9.90;5.97;;;12.60;99.90;;;;;;5111720;27;21003;-58
2022/05/18 01:45:57;;;;;;;8.27;6.20;;;12.60;99.90;;;;;;5103675;28;20435;-59
2022/05/18 01:48:26;;;;;;;7.70;5.60;;;12.60;99.90;;;;;;5105802;28;20493;-57
2022/05/18 01:50:52;;;;;;;8.00;5.87;;;12.60;99.90;;;;;;5102563;27;20510;-58
2022/05/18 01:53:18;;;;;;;6.20;5.30;;;12.50;99.90;;;;;;5107722;28;20970;-58
2022/05/18 01:55:45;;;;;;;11.93;7.03;;;12.50;99.90;;;;;;5102668;28;20438;-59
2022/05/18 01:58:13;;;;;;;9.20;5.00;;;12.50;99.90;;;;;;5084232;28;20419;-59
2022/05/18 02:00:39;;;;;;;8.87;6.47;;;12.50;99.90;;;;;;5086361;28;20435;-58
2022/05/18 02:03:05;;;;;;;9.00;5.27;;;12.40;99.90;;;;;;5096594;28;20994;-58
2022/05/18 02:05:30;;;;;;;8.67;6.60;;;12.40;99.90;;;;;;5097384;27;20513;-59
2022/05/18 02:07:57;;;;;;;7.30;6.30;;;12.40;99.90;;;;;;5106101;28;20280;-60
2022/05/18 02:10:24;;;;;;;6.73;5.53;;;12.40;99.90;;;;;;5109039;28;20181;-58
2022/05/18 02:12:50;;;;;;;6.60;5.70;;;12.30;99.90;;;;;;5105266;28;20442;-59
2022/05/18 02:15:15;;;;;;;7.23;5.93;;;12.30;99.90;;;;;;5101916;28;20435;-59
2022/05/18 02:17:41;;;;;;;6.63;5.33;;;12.30;99.90;;;;;;5099737;28;20939;-59
2022/05/18 02:20:07;;;;;;;6.17;5.53;;;12.30;99.90;;;;;;5099045;27;20581;-60
2022/05/18 02:22:33;;;;;;;7.67;5.33;;;12.30;99.90;;;;;;5104823;28;20208;-58
2022/05/18 02:24:59;;;;;;;6.57;5.77;;;12.30;99.90;;;;;;5103441;28;20423;-59
2022/05/18 02:27:25;;;;;;;7.90;5.97;;;12.20;99.90;;;;;;5100961;28;20799;-59
2022/05/18 02:29:50;;;;;;;10.80;6.57;;;12.20;99.90;;;;;;5100361;28;20183;-59
2022/05/18 02:32:17;;;;;;;8.80;6.43;;;12.20;99.90;;;;;;5101996;28;20275;-58
2022/05/18 02:34:43;;;;;;;7.50;5.90;;;12.10;99.90;;;;;;5102224;28;20177;-59
2022/05/18 02:37:08;;;;;;;14.77;6.17;;;12.10;99.90;;;;;;5101830;28;20428;-56
2022/05/18 02:39:34;;;;;;;10.00;6.30;;;12.10;99.90;;;;;;5100703;28;20899;-58
2022/05/18 02:42:00;;;;;;;9.07;5.73;;;12.10;99.90;;;;;;5100024;28;20204;-59
2022/05/18 02:44:25;;;;;;;6.67;5.40;;;12.10;99.90;;;;;;5101550;28;20185;-59
2022/05/18 02:46:57;;;;;;;6.10;5.50;;;12.10;99.90;;;;;;5104092;28;20277;-58
2022/05/18 02:49:23;;;;;;;7.20;5.60;;;12.00;99.90;;;;;;5101793;28;20284;-59
2022/05/18 02:51:51;;;;;;;7.33;6.40;;;12.00;99.90;;;;;;5102689;28;20457;-58
2022/05/18 02:57:03;;;;;;;8.77;6.03;;;11.90;99.90;;;;;;5106933;28;20855;-59
2022/05/18 02:59:29;;;;;;;8.13;6.33;;;11.90;99.90;;;;;;5102461;28;20840;-58
2022/05/18 03:01:55;;;;;;;9.30;5.30;;;11.90;99.90;;;;;;5098955;28;20458;-58
2022/05/18 03:04:21;;;;;;;6.57;5.90;;;11.90;99.90;;;;;;5101931;28;20426;-58
2022/05/18 03:06:46;;;;;;;5.90;5.17;;;11.90;99.90;;;;;;5105062;27;20749;-59
2022/05/18 03:09:12;;;;;;;10.03;6.53;;;11.90;99.90;;;;;;5107621;27;20431;-59
2022/05/18 03:11:38;;;;;;;6.47;5.83;;;11.80;99.90;;;;;;5102581;27;20204;-58
2022/05/18 03:14:03;;;;;;;6.60;5.20;;;11.80;99.90;;;;;;5106906;28;20530;-58
2022/05/18 03:16:30;;;;;;;7.80;5.33;;;11.80;99.90;;;;;;5106578;27;20180;-59
2022/05/18 03:18:56;;;;;;;8.00;6.23;;;11.80;99.90;;;;;;5103517;27;20165;-58
2022/05/18 03:24:07;;;;;;;11.33;5.57;;;11.80;99.90;;;;;;5107454;27;20486;-59
2022/05/18 03:26:33;;;;;;;8.60;6.20;;;11.80;99.90;;;;;;5085733;28;21319;-60
2022/05/18 03:28:59;;;;;;;6.77;6.10;;;11.80;99.90;;;;;;5086908;28;20427;-60
2022/05/18 03:31:26;;;;;;;9.57;6.10;;;11.80;99.90;;;;;;5105190;27;20431;-59
2022/05/18 03:33:55;;;;;;;6.30;5.40;;;11.80;99.90;;;;;;5105543;28;20473;-59
2022/05/18 03:36:21;;;;;;;7.90;6.17;;;11.80;99.90;;;;;;5104305;27;20434;-60
2022/05/18 03:38:48;;;;;;;8.93;5.63;;;11.70;99.90;;;;;;5107705;28;20926;-59
2022/05/18 03:41:14;;;;;;;10.33;5.87;;;11.70;99.90;;;;;;5106221;27;20419;-59
2022/05/18 03:43:41;;;;;;;6.10;5.50;;;11.70;99.90;;;;;;5107435;28;20898;-60
2022/05/18 03:46:07;;;;;;;9.67;5.73;;;11.70;99.90;;;;;;5100525;27;20525;-59
2022/05/18 03:48:33;;;;;;;9.20;6.70;;;11.70;99.90;;;;;;5104046;27;21869;-59
2022/05/18 03:51:01;;;;;;;8.87;6.07;;;11.70;99.90;;;;;;5107796;27;20430;-58
2022/05/18 03:53:27;;;;;;;7.77;6.10;;;11.70;99.90;;;;;;5100017;27;20458;-57
2022/05/18 03:55:54;;;;;;;9.03;5.37;;;11.70;99.90;;;;;;5097370;27;20435;-55
2022/05/18 03:58:20;;;;;;;9.80;6.43;;;11.70;99.90;;;;;;5098721;27;20423;-55
2022/05/18 04:00:48;;;;;;;10.23;6.70;;;11.70;99.90;;;;;;5097623;28;20431;-56
2022/05/18 04:03:15;;;;;;;10.17;6.50;;;11.70;99.90;;;;;;5103745;27;20452;-57
2022/05/18 04:05:41;;;;;;;7.93;6.17;;;11.60;99.90;;;;;;5103047;28;20434;-55
2022/05/18 04:08:10;;;;;;;13.27;6.30;;;11.60;99.90;;;;;;5106498;28;20986;-55
2022/05/18 04:10:38;;;;;;;7.03;5.90;;;11.60;99.90;;;;;;5100313;27;20177;-58
2022/05/18 04:13:10;;;;;;;14.77;7.10;;;11.60;99.90;;;;;;5102410;27;20541;-59
2022/05/18 04:15:36;;;;;;;6.80;5.77;;;11.60;99.90;;;;;;5098239;28;20462;-59
2022/05/18 04:18:03;;;;;;;11.70;5.90;;;11.60;99.90;;;;;;5093387;27;20560;-60
2022/05/18 04:20:29;;;;;;;8.83;6.30;;;11.60;99.90;;;;;;5096290;27;22748;-59
2022/05/18 04:22:55;;;;;;;10.43;5.90;;;11.60;99.90;;;;;;5095091;27;20567;-59
2022/05/18 04:25:23;;;;;;;15.50;6.40;;;11.70;99.90;;;;;;5096841;27;20938;-59
2022/05/18 04:27:49;;;;;;;7.70;6.80;;;11.70;99.90;;;;;;5097671;27;20204;-60
2022/05/18 04:30:17;;;;;;;19.40;6.77;;;11.70;99.90;;;;;;5094764;27;20439;-60
2022/05/18 04:32:42;;;;;;;9.03;5.73;;;11.80;99.90;;;;;;5098607;27;20673;-58
2022/05/18 04:35:10;;;;;;;9.97;6.63;;;11.80;99.90;;;;;;5102495;27;20434;-59
2022/05/18 04:37:36;;;;;;;7.53;5.80;;;11.80;99.90;;;;;;5101133;27;20435;-59
2022/05/18 04:40:02;;;;;;;9.80;6.43;;;11.90;99.90;;;;;;5096544;27;20946;-57
2022/05/18 04:42:28;;;;;;;9.90;6.03;;;11.90;99.90;;;;;;5101792;27;20450;-57
2022/05/18 04:44:53;;;;;;;6.53;5.90;;;12.00;99.90;;;;;;5076758;28;20491;-56
2022/05/18 04:47:24;;;;;;;9.17;6.10;;;12.00;99.90;;;;;;5102275;27;20600;-58
2022/05/18 04:49:51;;;;;;;8.70;5.73;;;12.00;99.90;;;;;;5095813;28;20179;-57
2022/05/18 04:52:21;;;;;;;8.73;5.80;;;12.10;99.90;;;;;;5102057;28;20457;-58
2022/05/18 04:54:48;;;;;;;11.53;6.20;;;12.10;99.90;;;;;;5095152;28;20430;-59
2022/05/18 04:57:14;;;;;;;10.90;5.80;;;12.10;99.90;;;;;;5085294;28;20447;-59
2022/05/18 04:59:40;;;;;;;10.13;6.17;;;12.20;99.90;;;;;;5102024;28;20450;-59
2022/05/18 05:02:06;;;;;;;9.30;6.23;;;12.30;99.90;;;;;;5088564;28;20447;-58
2022/05/18 05:04:33;;;;;;;15.30;6.27;;;12.30;99.90;;;;;;5088017;27;20188;-54
2022/05/18 05:06:59;;;;;;;6.60;5.90;;;12.40;99.90;;;;;;5107384;27;20458;-58
2022/05/18 05:09:24;;;;;;;11.80;5.67;;;12.40;99.90;;;;;;5106434;28;20935;-58
2022/05/18 05:11:52;;;;;;;8.33;5.97;;;12.50;99.90;;;;;;5101546;27;20208;-60
2022/05/18 05:14:18;;;;;;;11.93;5.83;;;12.60;99.90;;;;;;5103955;27;20208;-59
2022/05/18 05:16:44;;;;;;;9.63;5.83;;;12.70;99.90;;;;;;5108032;28;20762;-59
2022/05/18 05:19:09;;;;;;;7.70;6.10;;;12.70;99.90;;;;;;5108995;28;20468;-58
2022/05/18 05:21:36;;;;;;;8.17;5.60;;;12.80;99.90;;;;;;5108832;28;20196;-58
2022/05/18 05:24:03;;;;;;;6.60;4.90;;;12.80;99.90;;;;;;5109424;28;20177;-58
2022/05/18 05:26:29;;;;;;;5.80;5.20;;;12.80;99.90;;;;;;5110419;28;20462;-57
2022/05/18 05:28:54;;;;;;;8.53;5.90;;;12.90;99.90;;;;;;5100060;28;20429;-58
2022/05/18 05:31:20;;;;;;;10.60;6.50;;;12.90;99.90;;;;;;5109523;28;20935;-59
2022/05/18 05:33:46;;;;;;;7.27;5.40;;;13.00;99.90;;;;;;5108828;28;20169;-58
2022/05/18 05:36:12;;;;;;;6.43;4.73;;;13.10;99.90;;;;;;5101237;28;20252;-58
2022/05/18 05:38:38;;;;;;;9.80;6.80;;;13.20;99.90;;;;;;5108079;28;20446;-58
2022/05/18 05:41:04;;;;;;;12.23;5.90;;;13.20;99.90;;;;;;5110076;28;20179;-58
2022/05/18 05:43:31;;;;;;;10.67;6.20;;;13.30;99.90;;;;;;5109785;28;20447;-58
2022/05/18 05:46:03;;;;;;;10.43;6.17;;;13.30;99.90;;;;;;5090490;28;20181;-58
2022/05/18 05:48:30;;;;;;;8.87;6.50;;;13.40;99.90;;;;;;5096430;28;21104;-58
2022/05/18 05:51:00;;;;;;;8.33;5.97;;;13.50;99.90;;;;;;5091897;28;20945;-59
2022/05/18 05:53:25;;;;;;;9.77;6.20;;;13.50;99.90;;;;;;5107495;28;20455;-58
2022/05/18 05:55:53;;;;;;;8.80;6.63;;;13.70;99.90;;;;;;5101530;28;20832;-58
2022/05/18 05:58:20;;;;;;;8.13;6.93;;;13.70;99.90;;;;;;5089951;28;20168;-59
2022/05/18 06:00:46;;;;;;;10.73;7.10;;;13.80;99.90;;;;;;5108756;28;20446;-58
2022/05/18 06:03:13;;;;;;;11.50;7.53;;;13.90;99.90;;;;;;5088749;28;20470;-59
2022/05/18 06:05:40;;;;;;;13.70;7.70;;;14.00;99.90;;;;;;5096023;28;20422;-58
2022/05/18 06:08:06;;;;;;;16.97;7.70;;;14.10;99.90;;;;;;5108688;28;20462;-58
2022/05/18 06:10:32;;;;;;;10.03;6.63;;;14.20;99.90;;;;;;5109179;28;20407;-59
2022/05/18 06:12:58;;;;;;;8.97;6.30;;;14.30;99.90;;;;;;5103248;28;20444;-59
2022/05/18 06:15:23;;;;;;;7.07;5.63;;;14.40;99.90;;;;;;5104480;28;20173;-58
2022/05/18 06:17:49;;;;;;;6.90;6.13;;;14.50;99.90;;;;;;5107957;28;20211;-58
2022/05/18 06:20:15;;;;;;;10.00;5.90;;;14.60;99.90;;;;;;5089225;28;20177;-59
2022/05/18 06:22:40;;;;;;;8.70;6.03;;;14.70;99.90;;;;;;5106715;28;20256;-59
2022/05/18 06:25:06;;;;;;;9.83;5.93;;;14.80;99.90;;;;;;5108284;28;20637;-59
2022/05/18 06:27:32;;;;;;;8.67;6.30;;;14.90;99.90;;;;;;5109913;28;20306;-58
2022/05/18 06:29:58;;;;;;;7.13;5.80;;;15.00;99.90;;;;;;5109441;28;20992;-58
2022/05/18 06:32:23;;;;;;;7.20;5.90;;;15.10;99.90;;;;;;5108342;28;20181;-59
2022/05/18 06:34:49;;;;;;;13.10;6.10;;;15.20;99.90;;;;;;5104753;28;20652;-58
2022/05/18 06:37:15;;;;;;;7.03;5.10;;;15.40;99.90;;;;;;5103794;28;20177;-59
2022/05/18 06:39:41;;;;;;;6.60;5.37;;;15.50;99.90;;;;;;5110129;28;20241;-59
2022/05/18 06:42:07;;;;;;;10.27;5.90;;;15.70;99.90;;;;;;5113341;28;20865;-59
2022/05/18 06:44:33;;;;;;;8.50;5.73;;;15.80;99.90;;;;;;5111028;28;20516;-58
2022/05/18 06:47:00;;;;;;;6.20;5.03;;;15.90;99.90;;;;;;5112959;28;20193;-58
2022/05/18 06:49:29;;;;;;;9.13;6.30;;;16.00;99.90;;;;;;5112417;28;20256;-59
2022/05/18 06:51:58;;;;;;;9.07;4.90;;;16.20;97.50;;;;;;5111334;27;20450;-59
2022/05/18 06:54:24;;;;;;;8.13;4.87;;;16.30;96.00;;;;;;5112998;28;20425;-59
2022/05/18 06:56:49;;;;;;;10.80;5.23;;;16.50;94.00;;;;;;5113423;28;20403;-59
2022/05/18 06:59:16;;;;;;;7.03;5.03;;;16.60;92.80;;;;;;5095371;28;20168;-58
2022/05/18 07:01:42;;;;;;;10.37;5.17;;;16.80;92.00;;;;;;5112233;28;20193;-58
2022/05/18 07:04:10;;;;;;;6.40;5.23;;;16.90;90.80;;;;;;5106240;28;20430;-59
2022/05/18 07:06:38;;;;;;;5.90;4.53;;;17.10;91.00;;;;;;5106230;28;20486;-59
2022/05/18 07:09:07;;;;;;;7.13;5.73;;;17.30;90.50;;;;;;5109902;28;20400;-59
2022/05/18 07:11:36;;;;;;;6.20;4.83;;;17.40;88.90;;;;;;5104218;28;20433;-59
2022/05/18 07:14:02;;;;;;;12.43;5.30;;;17.60;86.60;;;;;;5109428;28;20923;-59
2022/05/18 07:16:29;;;;;;;7.93;5.47;;;17.70;82.10;;;;;;5113303;28;20399;-58
2022/05/18 07:18:55;;;;;;;8.50;5.20;;;17.90;81.00;;;;;;5101776;28;21001;-60
2022/05/18 07:21:22;;;;;;;13.90;5.50;;;18.00;80.70;;;;;;5111213;28;20439;-58
2022/05/18 07:23:48;;;;;;;8.20;5.00;;;18.10;80.50;;;;;;5112370;28;20422;-59
2022/05/18 07:26:15;;;;;;;7.17;4.90;;;18.20;78.60;;;;;;5107372;28;20452;-59
2022/05/18 07:28:42;;;;;;;8.93;5.30;;;18.30;78.00;;;;;;5098999;28;20457;-59
2022/05/18 07:31:08;;;;;;;8.57;4.63;;;18.40;76.60;;;;;;5105320;28;20431;-60
2022/05/18 07:33:35;;;;;;;5.67;4.63;;;18.60;75.80;;;;;;5108887;28;20588;-59
2022/05/18 07:36:02;;;;;;;6.70;5.33;;;18.70;75.10;;;;;;5112038;28;20403;-58
2022/05/18 07:38:29;;;;;;;8.43;4.70;;;18.70;73.00;;;;;;5111707;28;20974;-59
2022/05/18 07:40:56;;;;;;;9.47;5.33;;;18.80;71.80;;;;;;5111502;28;20433;-59
2022/05/18 07:43:22;;;;;;;7.33;5.20;;;18.90;72.00;;;;;;5109922;28;20419;-58
2022/05/18 07:45:49;;;;;;;9.23;5.03;;;19.00;71.30;;;;;;5110748;28;21088;-58
2022/05/18 07:48:16;;;;;;;7.83;5.80;;;19.10;71.90;;;;;;5109883;28;20208;-60
2022/05/18 07:50:42;;;;;;;8.83;4.83;;;19.20;72.70;;;;;;5110998;28;20418;-59
2022/05/18 07:53:08;;;;;;;15.70;6.23;;;19.40;72.40;;;;;;5111995;28;20964;-59
2022/05/18 07:55:34;;;;;;;10.80;5.97;;;19.50;73.30;;;;;;5111094;28;20407;-58
2022/05/18 07:58:04;;;;;;;9.70;4.33;;;19.60;72.70;;;;;;5109242;28;20177;-58
2022/05/18 08:00:29;;;;;;;7.90;4.87;;;19.70;71.00;;;;;;5103434;28;20189;-58
2022/05/18 08:02:55;;;;;;;4.90;3.80;;;19.80;69.40;;;;;;5099910;28;20822;-58
2022/05/18 08:05:21;;;;;;;6.33;4.90;;;19.90;68.90;;;;;;5110860;28;20166;-59
2022/05/18 08:07:47;;;;;;;10.33;4.87;;;20.00;67.80;;;;;;5110962;28;20224;-59
2022/05/18 08:15:44;;;;;;;6.10;4.60;;;20.40;65.80;;;;;;5103431;28;20491;-58
2022/05/18 08:18:11;;;;;;;6.73;4.77;;;20.50;64.70;;;;;;5103160;27;20969;-58
2022/05/18 08:20:39;;;;;;;10.50;4.10;;;20.60;63.80;;;;;;5110284;28;21311;-58
2022/05/18 08:23:05;;;;;;;10.93;4.43;;;20.70;63.00;;;;;;5111221;28;20415;-58
2022/05/18 08:25:31;;;;;;;6.13;4.50;;;20.80;61.70;;;;;;5106326;28;20407;-58
2022/05/18 08:27:57;;;;;;;5.77;3.80;;;20.80;61.40;;;;;;5109631;28;20459;-59
2022/05/18 08:30:23;;;;;;;11.37;3.73;;;21.00;61.30;;;;;;5109826;28;20472;-58
2022/05/18 08:32:50;;;;;;;9.00;3.77;;;21.10;60.70;;;;;;5109659;28;20189;-59
2022/05/18 08:35:16;;;;;;;5.37;3.20;;;21.20;60.60;;;;;;5101832;27;20238;-59
2022/05/18 08:37:46;;;;;;;5.27;3.43;;;21.30;59.00;;;;;;5110789;28;20407;-58
2022/05/18 08:40:44;;;;;;;9.50;4.20;;;21.30;57.30;;;;;;5110174;28;20532;-58
2022/05/18 08:43:18;;;;;;;4.87;3.63;;;21.40;58.00;;;;;;5108089;28;20970;-57
2022/05/18 08:45:48;;;;;;;5.53;3.70;;;21.50;57.30;;;;;;5108993;28;20513;-58
2022/05/18 08:48:42;;;;;;;4.83;3.73;;;21.50;55.90;;;;;;5106853;28;20520;-58
2022/05/18 08:51:38;;;;;;;4.50;3.30;;;21.70;55.80;;;;;;5099567;28;20458;-59
2022/05/18 08:54:24;;;;;;;6.17;3.60;;;21.80;55.20;;;;;;5101276;28;20411;-59
2022/05/18 08:56:53;;;;;;;12.33;4.20;;;21.90;55.90;;;;;;5110890;28;20896;-59
2022/05/18 08:59:30;;;;;;;8.23;3.13;;;22.00;56.10;;;;;;5089819;27;20458;-59
2022/05/18 09:01:59;;;;;;;3.50;3.10;;;22.10;54.50;;;;;;5106604;28;20450;-59
2022/05/18 09:04:45;;;;;;;5.10;3.83;;;22.20;53.50;;;;;;5105622;28;20426;-58
2022/05/18 09:07:16;;;;;;;4.33;3.43;;;22.30;54.00;;;;;;5109923;28;20455;-59
2022/05/18 09:12:41;;;;;;;12.80;4.00;;;22.50;52.40;;;;;;5091403;28;20419;-59
2022/05/18 09:15:09;;;;;;;5.30;2.93;;;22.60;52.10;;;;;;5108159;28;20532;-58
2022/05/18 09:17:54;;;;;;;4.70;3.30;;;22.70;51.60;;;;;;5096990;27;20441;-59
2022/05/18 09:20:41;;;;;;;5.30;3.20;;;22.80;53.00;;;;;;5095142;28;20472;-58
2022/05/18 09:23:35;;;;;;;6.03;2.77;;;23.00;52.40;;;;;;5085777;28;20478;-58
2022/05/18 09:26:26;;;;;;;4.63;3.17;;;23.00;51.00;;;;;;5106712;28;20415;-59
2022/05/18 09:29:29;;;;;;;3.73;3.10;;;23.10;51.20;;;;;;5109114;28;20423;-59
2022/05/18 09:32:00;;;;;;;5.43;2.80;;;23.20;51.20;;;;;;5108357;28;20456;-59
2022/05/18 09:34:36;;;;;;;3.97;3.47;;;23.40;50.10;;;;;;5102159;28;20411;-59
2022/05/18 09:37:20;;;;;;;4.03;3.63;;;23.40;50.40;;;;;;5104999;28;20432;-59
2022/05/18 09:39:52;;;;;;;5.43;2.60;;;23.50;50.10;;;;;;5109640;28;20416;-59
2022/05/18 09:42:23;;;;;;;6.33;3.17;;;23.60;50.00;;;;;;5104096;28;20451;-58
2022/05/18 09:45:05;;;;;;;4.27;3.30;;;23.70;50.20;;;;;;5104719;28;20877;-59
2022/05/18 09:47:49;;;;;;;4.73;2.90;;;23.80;49.30;;;;;;5109511;28;20446;-58
2022/05/18 09:50:15;;;;;;;3.97;2.73;;;23.90;48.30;;;;;;5107909;28;20523;-58
2022/05/18 09:52:44;;;;;;;5.00;3.20;;;23.90;49.30;;;;;;5109756;28;20971;-58
2022/05/18 09:55:14;;;;;;;6.60;2.83;;;24.00;49.40;;;;;;5107255;28;20173;-58
2022/05/18 09:58:08;;;;;;;4.23;2.33;;;24.10;49.20;;;;;;5107960;28;20525;-59
2022/05/18 10:00:36;;;;;;;3.20;2.27;;;24.20;48.20;;;;;;5103780;28;20442;-58
2022/05/18 10:08:53;;;;;;;4.13;2.60;;;24.40;46.50;;;;;;5109451;28;20424;-59
2022/05/18 10:11:30;;;;;;;2.60;2.40;;;24.50;46.80;;;;;;5104065;28;20430;-58
2022/05/18 10:14:16;;;;;;;3.30;2.27;;;24.60;45.80;;;;;;5089200;28;20433;-59
2022/05/18 10:17:07;;;;;;;2.70;1.90;;;24.70;46.00;;;;;;5108471;28;20435;-59
2022/05/18 10:19:44;;;;;;;2.03;1.83;;;24.80;45.60;;;;;;5109360;28;20607;-59
2022/05/18 10:22:16;;;;;;;2.90;1.90;;;24.90;42.10;;;;;;5109591;28;20469;-59
2022/05/18 10:25:04;;;;;;;7.63;2.10;;;25.00;42.00;;;;;;5105004;28;20451;-60
2022/05/18 10:27:34;;;;;;;5.57;2.00;;;25.10;42.80;;;;;;5107237;28;20462;-58
2022/05/18 10:30:09;;;;;;;2.70;1.70;;;25.30;42.60;;;;;;5099406;28;20412;-59
2022/05/18 10:32:50;;;;;;;3.90;1.97;;;25.40;41.80;;;;;;5102991;28;20445;-61
2022/05/18 10:35:32;;;;;;;4.70;1.83;;;25.50;42.30;;;;;;5084541;28;20449;-59
2022/05/18 10:38:02;;;;;;;1.73;1.50;;;25.60;42.30;;;;;;5089212;28;20438;-58
2022/05/18 10:40:29;;;;;;;2.57;1.80;;;25.70;41.30;;;;;;5108667;28;20429;-61
2022/05/18 10:43:11;;;;;;;4.00;2.00;;;25.80;41.10;;;;;;5104580;28;20965;-59
2022/05/18 10:45:37;;;;;;;3.10;1.67;;;25.80;40.10;;;;;;5104819;28;20438;-59
2022/05/18 10:48:18;;;;;;;3.17;1.90;;;25.90;39.20;;;;;;5102982;28;20474;-60
2022/05/18 10:50:45;;;;;;;2.60;2.37;;;25.90;39.50;;;;;;5099051;28;20461;-59
2022/05/18 10:53:13;;;;;;;3.70;2.57;;;26.00;40.20;;;;;;5102967;28;20456;-60
2022/05/18 10:55:54;;;;;;;3.27;2.07;;;26.10;41.10;;;;;;5101211;28;20475;-59
2022/05/18 10:58:27;;;;;;;5.30;2.80;;;26.10;40.60;;;;;;5100774;28;20426;-59
2022/05/18 11:01:08;;;;;;;3.67;2.57;;;26.20;42.00;;;;;;5081621;28;20430;-59
2022/05/18 11:04:02;;;;;;;2.90;2.40;;;26.30;41.80;;;;;;5093508;28;20461;-59
2022/05/18 11:06:33;;;;;;;2.97;2.13;;;26.50;42.00;;;;;;5103259;28;20462;-59
2022/05/18 11:09:06;;;;;;;4.57;2.20;;;26.50;42.00;;;;;;5103042;28;20422;-58
2022/05/18 11:12:09;;;;;;;2.23;1.93;;;26.70;40.30;;;;;;5096937;28;20632;-58
2022/05/18 11:14:47;;;;;;;3.20;2.30;;;26.70;40.40;;;;;;5082574;28;20430;-56
2022/05/18 11:17:48;;;;;;;3.10;2.53;;;26.80;40.80;;;;;;5098237;28;20479;-58
2022/05/18 11:20:45;;;;;;;3.10;2.30;;;27.00;41.20;;;;;;5104705;28;20441;-58
2022/05/18 11:23:26;;;;;;;4.20;2.43;;;27.10;42.30;;;;;;5098394;28;20524;-59
2022/05/18 11:26:18;;;;;;;3.80;2.40;;;27.20;40.80;;;;;;5096874;28;20449;-58
2022/05/18 11:28:55;;;;;;;3.60;2.60;;;27.20;41.10;;;;;;5108942;28;21118;-58
2022/05/18 11:31:29;;;;;;;5.03;2.50;;;27.30;42.50;;;;;;5108320;27;20434;-58
2022/05/18 11:34:04;;;;;;;2.60;2.20;;;27.30;42.40;;;;;;5104601;27;20252;-60
2022/05/18 11:36:58;;;;;;;4.00;2.60;;;27.30;40.90;;;;;;5101954;27;20430;-58
2022/05/18 11:40:18;;;;;;;5.17;2.50;;;27.30;41.20;;;;;;5108101;28;20172;-59
2022/05/18 11:43:28;;;;;;;2.93;2.47;;;27.30;40.90;;;;;;5022806;28;20259;-60
2022/05/18 11:46:06;;;;;;;4.87;2.90;;;27.40;42.80;;;;;;5101950;28;20264;-61
2022/05/18 11:48:41;;;;;;;3.37;2.60;;;27.50;42.30;;;;;;5119167;27;20551;-60
2022/05/18 11:51:25;;;;;;;3.83;2.23;;;27.60;40.90;;;;;;5111058;28;20186;-60
2022/05/18 11:54:29;;;;;;;3.83;2.50;;;27.70;40.40;;;;;;5092726;28;20164;-58
2022/05/18 11:57:15;;;;;;;5.43;2.50;;;27.80;39.40;;;;;;5106048;28;20176;-59
2022/05/18 12:00:27;;;;;;;8.70;2.20;;;27.90;41.40;;;;;;5109505;28;20290;-58
2022/05/18 12:03:17;;;;;;;4.30;2.97;;;28.00;40.10;;;;;;5053951;28;20219;-58
2022/05/18 12:05:53;;;;;;;5.83;2.90;;;28.10;41.60;;;;;;5103710;28;20530;-59
2022/05/18 12:08:37;;;;;;;4.27;2.80;;;28.20;39.70;;;;;;5109863;28;20192;-58
2022/05/18 12:11:15;;;;;;;6.90;2.67;;;28.20;39.30;;;;;;5107350;28;20173;-58
2022/05/18 12:13:59;;;;;;;3.27;2.80;;;28.30;41.00;;;;;;5101893;28;20279;-59
2022/05/18 12:16:33;;;;;;;6.00;2.87;;;28.40;40.30;;;;;;5103728;27;20230;-60
2022/05/18 12:19:31;;;;;;;5.83;2.20;;;28.50;40.20;;;;;;5105772;28;20309;-60
2022/05/18 12:22:31;;;;;;;2.85;2.38;;;28.60;41.00;;;;;;5062834;28;20204;-58
2022/05/18 12:24:58;;;;;;;5.33;2.83;;;28.70;41.00;;;;;;5085578;28;20301;-58
2022/05/18 12:27:26;;;;;;;3.30;2.50;;;28.70;40.40;;;;;;5083893;28;20806;-59
2022/05/18 12:29:55;;;;;;;4.73;2.07;;;28.80;40.60;;;;;;5105683;28;20153;-58
2022/05/18 12:32:22;;;;;;;2.58;2.38;;;28.80;39.00;;;;;;5104234;28;20232;-59
2022/05/18 12:35:15;;;;;;;7.43;3.13;;;28.90;40.20;;;;;;5107282;28;20187;-58
2022/05/18 12:38:05;;;;;;;2.60;2.40;;;29.10;41.50;;;;;;5108896;28;20234;-58
2022/05/18 12:40:31;;;;;;;4.72;2.85;;;29.20;41.50;;;;;;5107085;28;20259;-58
2022/05/18 12:43:32;;;;;;;5.93;2.42;;;29.30;40.90;;;;;;5107237;28;20427;-58
2022/05/18 12:46:16;;;;;;;3.78;2.28;;;29.30;38.90;;;;;;5100333;27;20172;-58
2022/05/18 12:48:57;;;;;;;6.07;2.20;;;29.50;38.20;;;;;;5085534;28;20247;-58
2022/05/18 12:51:31;;;;;;;9.88;2.53;;;29.60;36.70;;;;;;5108639;28;20157;-59
2022/05/18 12:54:09;;;;;;;2.83;2.53;;;29.70;34.40;;;;;;5102576;27;20183;-58
2022/05/18 12:56:35;;;;;;;3.80;2.25;;;29.60;35.50;;;;;;5106736;27;20192;-59
2022/05/18 12:59:31;;;;;;;2.65;2.15;;;29.60;35.10;;;;;;5108795;27;20165;-58
2022/05/18 13:02:05;;;;;;;2.70;2.40;;;29.60;35.70;;;;;;5047425;28;20234;-58
2022/05/18 13:04:40;;;;;;;6.28;2.85;;;29.80;36.90;;;;;;5099619;28;20167;-59
2022/05/18 13:07:27;;;;;;;5.13;2.80;;;29.80;36.80;;;;;;5098596;27;20267;-58
2022/05/18 13:10:11;;;;;;;6.50;2.95;;;30.00;36.40;;;;;;5109041;28;20196;-59
2022/05/18 13:12:45;;;;;;;2.40;2.20;;;30.10;37.10;;;;;;5107924;27;20199;-58
2022/05/18 13:15:19;;;;;;;6.43;2.10;;;30.30;35.20;;;;;;5099864;27;20176;-59
2022/05/18 13:17:50;;;;;;;3.08;2.45;;;30.30;35.20;;;;;;5098936;28;20192;-58
2022/05/18 13:20:31;;;;;;;4.20;1.98;;;30.40;35.00;;;;;;5106135;28;20834;-59
2022/05/18 13:23:12;;;;;;;5.70;2.40;;;30.40;33.20;;;;;;5105547;28;20204;-59
2022/05/18 13:25:41;;;;;;;5.03;2.22;;;30.40;33.80;;;;;;5096473;28;20173;-58
2022/05/18 13:28:09;;;;;;;2.38;2.00;;;30.50;34.80;;;;;;5104797;28;20208;-59